createdAt,value
2019-05-29T00:00:41.982Z,23.73
2019-05-29T00:03:12.498Z,23.75
2019-05-29T00:05:42.350Z,23.78
2019-05-29T00:08:12.349Z,23.83
2019-05-29T00:10:43.458Z,23.80
2019-05-29T00:13:13.056Z,23.79
2019-05-29T00:15:42.911Z,23.77
2019-05-29T00:18:12.889Z,23.73
2019-05-29T00:20:42.479Z,23.83
2019-05-29T00:23:12.523Z,23.80
2019-05-29T00:25:42.259Z,23.73
2019-05-29T00:28:12.662Z,23.69
2019-05-29T00:30:43.984Z,23.78
2019-05-29T00:33:14.396Z,23.76
2019-05-29T00:35:44.082Z,23.71
2019-05-29T00:38:14.713Z,23.67
2019-05-29T00:40:44.576Z,23.76
2019-05-29T00:43:15.506Z,23.79
2019-05-29T00:45:45.241Z,23.81
2019-05-29T00:48:16.072Z,23.77
2019-05-29T00:50:45.822Z,23.71
2019-05-29T00:53:16.393Z,23.76
2019-05-29T00:55:46.278Z,23.78
2019-05-29T00:58:17.082Z,23.69
2019-05-29T01:00:46.991Z,23.74
2019-05-29T01:03:17.811Z,23.72
2019-05-29T01:05:47.831Z,23.70
2019-05-29T01:08:18.450Z,23.74
2019-05-29T01:10:48.212Z,23.73
2019-05-29T01:13:17.803Z,23.73
2019-05-29T01:15:47.390Z,23.74
2019-05-29T01:18:17.796Z,23.76
2019-05-29T01:20:47.605Z,23.83
2019-05-29T01:23:18.286Z,23.78
2019-05-29T01:25:48.002Z,23.73
2019-05-29T01:28:17.586Z,23.68
2019-05-29T01:30:51.571Z,23.70
2019-05-29T01:33:23.327Z,23.71
2019-05-29T01:35:52.046Z,23.70
2019-05-29T01:38:21.646Z,23.74
2019-05-29T01:40:51.239Z,23.74
2019-05-29T01:43:21.437Z,23.82
2019-05-29T01:45:51.103Z,23.79
2019-05-29T01:48:21.614Z,23.78
2019-05-29T01:50:51.339Z,23.73
2019-05-29T01:53:21.744Z,23.72
2019-05-29T01:55:51.328Z,23.79
2019-05-29T01:58:21.979Z,23.72
2019-05-29T02:00:51.993Z,23.69
2019-05-29T02:03:21.914Z,23.67
2019-05-29T02:05:51.604Z,23.65
2019-05-29T02:08:22.100Z,23.63
2019-05-29T02:10:51.714Z,23.65
2019-05-29T02:13:21.436Z,23.64
2019-05-29T02:15:51.012Z,23.69
2019-05-29T02:18:20.780Z,23.71
2019-05-29T02:20:50.564Z,23.70
2019-05-29T02:23:20.153Z,23.72
2019-05-29T02:25:49.747Z,23.67
2019-05-29T02:28:20.428Z,23.74
2019-05-29T02:30:50.934Z,23.71
2019-05-29T02:33:21.939Z,23.69
2019-05-29T02:35:51.821Z,23.79
2019-05-29T02:38:22.945Z,23.78
2019-05-29T02:40:52.701Z,23.81
2019-05-29T02:43:23.532Z,23.78
2019-05-29T02:45:55.160Z,23.72
2019-05-29T02:48:26.922Z,23.68
2019-05-29T02:50:56.458Z,23.65
2019-05-29T02:53:26.208Z,23.77
2019-05-29T02:55:56.033Z,23.79
2019-05-29T02:58:27.494Z,23.75
2019-05-29T03:00:57.360Z,23.75
2019-05-29T03:03:29.545Z,23.70
2019-05-29T03:05:58.597Z,23.67
2019-05-29T03:08:31.183Z,23.67
2019-05-29T03:10:59.498Z,23.72
2019-05-29T03:13:30.553Z,23.72
2019-05-29T03:16:10.797Z,23.71
2019-05-29T03:18:32.589Z,23.78
2019-05-29T03:21:03.018Z,23.74
2019-05-29T03:23:33.914Z,23.76
2019-05-29T03:26:04.275Z,23.80
2019-05-29T03:28:34.991Z,23.82
2019-05-29T03:31:06.906Z,23.83
2019-05-29T03:33:44.931Z,23.84
2019-05-29T03:36:07.797Z,23.83
2019-05-29T03:38:38.594Z,23.82
2019-05-29T03:41:08.375Z,23.81
2019-05-29T03:43:38.781Z,23.67
2019-05-29T03:46:28.739Z,23.71
2019-05-29T03:48:39.812Z,23.73
2019-05-29T03:51:09.426Z,23.78
2019-05-29T03:53:39.020Z,23.82
2019-05-29T03:56:08.612Z,23.80
2019-05-29T03:58:38.283Z,23.77
2019-05-29T04:01:07.900Z,23.71
2019-05-29T04:03:38.320Z,23.77
2019-05-29T04:06:08.143Z,23.79
2019-05-29T04:08:38.449Z,23.78
2019-05-29T04:11:08.713Z,23.75
2019-05-29T04:13:39.394Z,23.77
2019-05-29T04:16:11.380Z,23.83
2019-05-29T04:18:41.530Z,23.83
2019-05-29T04:21:12.147Z,23.83
2019-05-29T04:23:44.662Z,23.84
2019-05-29T04:26:16.577Z,23.86
2019-05-29T04:28:47.985Z,23.74
2019-05-29T04:31:17.588Z,23.73
2019-05-29T04:33:47.238Z,23.81
2019-05-29T04:36:16.944Z,23.84
2019-05-29T04:38:46.542Z,23.88
2019-05-29T04:41:16.127Z,23.88
2019-05-29T04:43:45.801Z,23.89
2019-05-29T04:46:15.461Z,23.95
2019-05-29T04:48:45.061Z,23.93
2019-05-29T04:51:14.680Z,23.90
2019-05-29T04:53:44.345Z,23.74
2019-05-29T04:56:14.084Z,23.70
2019-05-29T04:58:43.676Z,23.85
2019-05-29T05:01:13.267Z,23.94
2019-05-29T05:03:42.859Z,23.87
2019-05-29T05:06:12.467Z,23.86
2019-05-29T05:08:42.067Z,23.90
2019-05-29T05:11:11.734Z,23.80
2019-05-29T05:13:41.339Z,23.82
2019-05-29T05:16:10.738Z,23.76
2019-05-29T05:18:40.592Z,23.76
2019-05-29T05:21:10.184Z,23.84
2019-05-29T05:23:40.485Z,23.78
2019-05-29T05:26:10.534Z,23.83
2019-05-29T05:28:43.630Z,23.69
2019-05-29T05:31:11.492Z,23.66
2019-05-29T05:33:41.289Z,23.67
2019-05-29T05:36:11.000Z,23.53
2019-05-29T05:38:41.061Z,23.63
2019-05-29T05:41:11.207Z,23.66
2019-05-29T05:43:41.334Z,23.68
2019-05-29T05:46:11.307Z,23.54
2019-05-29T05:48:41.567Z,23.48
2019-05-29T05:51:11.433Z,23.36
2019-05-29T05:53:41.795Z,23.37
2019-05-29T05:56:11.912Z,23.48
2019-05-29T05:58:42.367Z,23.48
2019-05-29T06:01:12.555Z,23.36
2019-05-29T06:03:42.664Z,23.36
2019-05-29T06:06:12.628Z,23.37
2019-05-29T06:08:42.615Z,23.51
2019-05-29T06:11:12.331Z,23.39
2019-05-29T06:13:42.739Z,23.32
2019-05-29T06:16:12.497Z,23.40
2019-05-29T06:18:43.297Z,23.37
2019-05-29T06:21:12.892Z,23.43
2019-05-29T06:23:43.577Z,23.41
2019-05-29T06:26:13.905Z,23.35
2019-05-29T06:28:44.021Z,23.31
2019-05-29T06:31:13.692Z,23.29
2019-05-29T06:33:43.901Z,23.27
2019-05-29T06:36:14.105Z,23.40
2019-05-29T06:38:44.230Z,23.45
2019-05-29T06:41:14.669Z,23.39
2019-05-29T06:43:44.678Z,23.39
2019-05-29T06:46:14.640Z,23.48
2019-05-29T06:48:56.228Z,23.47
2019-05-29T06:51:15.545Z,23.29
2019-05-29T06:53:45.409Z,23.16
2019-05-29T06:56:16.162Z,23.28
2019-05-29T06:58:46.289Z,23.28
2019-05-29T07:01:15.914Z,23.11
2019-05-29T07:03:45.489Z,23.29
2019-05-29T07:06:15.107Z,23.37
2019-05-29T07:08:48.135Z,23.18
2019-05-29T07:11:15.995Z,23.10
2019-05-29T07:13:48.360Z,23.15
2019-05-29T07:16:16.890Z,23.15
2019-05-29T07:19:23.015Z,23.13
2019-05-29T07:21:17.922Z,23.25
2019-05-29T07:23:48.732Z,23.26
2019-05-29T07:26:18.692Z,23.28
2019-05-29T07:29:07.679Z,23.30
2019-05-29T07:31:20.023Z,23.26
2019-05-29T07:33:49.612Z,23.32
2019-05-29T07:36:19.217Z,23.35
2019-05-29T07:39:02.319Z,23.24
2019-05-29T07:41:20.135Z,23.15
2019-05-29T07:43:49.725Z,23.14
2019-05-29T07:46:19.344Z,23.22
2019-05-29T07:48:50.300Z,23.19
2019-05-29T07:51:20.379Z,23.16
2019-05-29T07:53:49.964Z,23.04
2019-05-29T07:56:22.877Z,23.16
2019-05-29T07:59:01.726Z,23.15
2019-05-29T08:01:22.176Z,23.02
2019-05-29T08:03:51.776Z,22.91
2019-05-29T08:06:21.373Z,23.03
2019-05-29T08:08:51.159Z,22.97
2019-05-29T08:11:21.131Z,22.90
2019-05-29T08:13:50.738Z,23.13
2019-05-29T08:16:20.336Z,23.18
2019-05-29T08:18:52.907Z,23.18
2019-05-29T08:21:21.361Z,23.14
2019-05-29T08:23:51.015Z,23.10
2019-05-29T08:26:20.616Z,23.08
2019-05-29T08:28:51.106Z,23.20
2019-05-29T08:31:20.894Z,22.99
2019-05-29T08:33:51.244Z,23.13
2019-05-29T08:36:21.113Z,23.14
2019-05-29T08:38:51.725Z,23.14
2019-05-29T08:41:21.857Z,23.05
2019-05-29T08:43:52.696Z,23.04
2019-05-29T08:46:22.616Z,23.14
2019-05-29T08:48:52.423Z,23.24
2019-05-29T08:51:22.099Z,23.25
2019-05-29T08:53:54.321Z,23.16
2019-05-29T08:56:23.333Z,23.17
2019-05-29T08:58:52.948Z,23.13
2019-05-29T09:01:22.530Z,23.07
2019-05-29T09:03:53.311Z,23.14
2019-05-29T09:06:23.208Z,23.19
2019-05-29T09:08:54.827Z,23.12
2019-05-29T09:11:24.079Z,23.10
2019-05-29T09:13:53.672Z,23.11
2019-05-29T09:16:23.393Z,23.10
2019-05-29T09:18:52.986Z,23.14
2019-05-29T09:21:25.901Z,23.17
2019-05-29T09:23:54.012Z,23.17
2019-05-29T09:26:25.851Z,23.10
2019-05-29T09:28:55.001Z,23.12
2019-05-29T09:31:24.570Z,23.11
2019-05-29T09:33:54.182Z,23.10
2019-05-29T09:36:24.708Z,23.16
2019-05-29T09:38:54.701Z,23.16
2019-05-29T09:41:25.600Z,23.13
2019-05-29T09:43:59.691Z,23.02
2019-05-29T09:46:27.585Z,23.10
2019-05-29T09:48:57.186Z,23.10
2019-05-29T09:51:27.669Z,23.09
2019-05-29T09:53:58.226Z,23.17
2019-05-29T09:56:28.581Z,23.23
2019-05-29T09:58:59.806Z,23.18
2019-05-29T10:01:29.565Z,23.15
2019-05-29T10:04:01.920Z,23.10
2019-05-29T10:06:30.747Z,23.06
2019-05-29T10:09:01.655Z,23.03
2019-05-29T10:11:31.744Z,23.03
2019-05-29T10:14:02.705Z,23.04
2019-05-29T10:16:32.491Z,23.08
2019-05-29T10:19:03.227Z,23.10
2019-05-29T10:21:41.520Z,23.09
2019-05-29T10:24:06.186Z,23.09
2019-05-29T10:26:37.015Z,23.02
2019-05-29T10:29:09.067Z,22.99
2019-05-29T10:31:37.926Z,22.94
2019-05-29T10:34:07.608Z,23.03
2019-05-29T10:36:37.200Z,23.12
2019-05-29T10:39:08.230Z,23.12
2019-05-29T10:41:37.894Z,23.10
2019-05-29T10:44:07.553Z,23.07
2019-05-29T10:46:37.302Z,23.06
2019-05-29T10:49:06.918Z,23.04
2019-05-29T10:51:36.512Z,23.02
2019-05-29T10:54:06.184Z,23.01
2019-05-29T10:56:36.058Z,23.04
2019-05-29T10:59:06.126Z,23.16
2019-05-29T11:01:35.788Z,23.09
2019-05-29T11:04:05.672Z,23.03
2019-05-29T11:06:35.248Z,23.12
2019-05-29T11:09:07.182Z,23.17
2019-05-29T11:11:36.783Z,23.14
2019-05-29T11:14:06.382Z,23.17
2019-05-29T11:16:39.620Z,23.08
2019-05-29T11:19:07.298Z,23.03
2019-05-29T11:21:36.877Z,23.04
2019-05-29T11:24:06.494Z,23.10
2019-05-29T11:26:36.079Z,23.08
2019-05-29T11:29:05.679Z,23.09
2019-05-29T11:31:35.472Z,23.04
2019-05-29T11:34:05.412Z,23.06
2019-05-29T11:36:35.011Z,23.09
2019-05-29T11:39:08.492Z,23.10
2019-05-29T11:41:38.080Z,23.02
2019-05-29T11:44:07.675Z,23.06
2019-05-29T11:46:37.272Z,23.00
2019-05-29T11:49:06.871Z,23.08
2019-05-29T11:51:36.461Z,23.19
2019-05-29T11:54:06.227Z,23.22
2019-05-29T11:56:35.822Z,23.30
2019-05-29T11:59:05.656Z,23.23
2019-05-29T12:01:49.813Z,23.23
2019-05-29T12:04:22.919Z,23.24
2019-05-29T12:06:40.615Z,23.29
2019-05-29T12:09:11.078Z,23.18
2019-05-29T12:11:40.744Z,23.25
2019-05-29T12:14:10.345Z,23.25
2019-05-29T12:16:39.937Z,23.24
2019-05-29T12:19:09.541Z,23.30
2019-05-29T12:21:42.523Z,23.26
2019-05-29T12:24:10.423Z,23.21
2019-05-29T12:26:40.051Z,23.26
2019-05-29T12:29:11.888Z,23.30
2019-05-29T12:31:41.771Z,23.36
2019-05-29T12:34:18.837Z,23.19
2019-05-29T12:36:42.696Z,23.17
2019-05-29T12:39:12.349Z,23.26
2019-05-29T12:41:41.938Z,23.25
2019-05-29T12:44:11.576Z,23.22
2019-05-29T12:46:41.168Z,23.25
2019-05-29T12:49:10.760Z,23.31
2019-05-29T12:51:40.366Z,23.26
2019-05-29T12:54:09.957Z,23.29
2019-05-29T12:56:39.556Z,23.33
2019-05-29T12:59:09.232Z,23.31
2019-05-29T13:01:38.863Z,23.29
2019-05-29T13:04:08.452Z,23.22
2019-05-29T13:06:38.060Z,23.29
2019-05-29T13:09:08.898Z,23.30
2019-05-29T13:11:38.493Z,23.36
2019-05-29T13:14:08.111Z,23.37
2019-05-29T13:16:37.712Z,23.38
2019-05-29T13:19:07.475Z,23.37
2019-05-29T13:21:37.058Z,23.42
2019-05-29T13:24:11.277Z,23.43
2019-05-29T13:26:39.175Z,23.47
2019-05-29T13:29:08.804Z,23.34
2019-05-29T13:31:38.427Z,23.34
2019-05-29T13:34:08.092Z,23.38
2019-05-29T13:36:37.715Z,23.38
2019-05-29T13:39:08.878Z,23.33
2019-05-29T13:41:38.462Z,23.34
2019-05-29T13:44:08.061Z,23.38
2019-05-29T13:46:37.661Z,23.44
2019-05-29T13:49:07.358Z,23.41
2019-05-29T13:51:37.162Z,23.46
2019-05-29T13:54:13.473Z,23.43
2019-05-29T13:56:38.055Z,23.48
2019-05-29T13:59:08.422Z,23.46
2019-05-29T14:01:38.140Z,23.48
2019-05-29T14:04:08.628Z,23.52
2019-05-29T14:06:38.808Z,23.52
2019-05-29T14:09:10.094Z,23.49
2019-05-29T14:11:40.715Z,23.49
2019-05-29T14:14:13.293Z,23.41
2019-05-29T14:16:41.633Z,23.41
2019-05-29T14:19:11.682Z,23.47
2019-05-29T14:21:42.130Z,23.51
2019-05-29T14:24:26.750Z,23.51
2019-05-29T14:26:44.181Z,23.57
2019-05-29T14:29:13.943Z,23.58
2019-05-29T14:31:43.562Z,23.61
2019-05-29T14:34:13.477Z,23.65
2019-05-29T14:36:43.359Z,23.65
2019-05-29T14:39:12.966Z,23.60
2019-05-29T14:41:42.562Z,23.67
2019-05-29T14:44:12.177Z,23.69
2019-05-29T14:46:41.747Z,23.73
2019-05-29T14:49:13.371Z,23.71
2019-05-29T14:51:42.650Z,23.72
2019-05-29T14:54:13.099Z,23.74
2019-05-29T14:56:43.505Z,23.76
2019-05-29T14:59:13.863Z,23.76
2019-05-29T15:01:43.475Z,23.81
2019-05-29T15:04:14.610Z,23.79
2019-05-29T15:06:44.424Z,23.85
2019-05-29T15:09:14.049Z,23.90
2019-05-29T15:11:43.639Z,23.93
2019-05-29T15:14:14.483Z,23.99
2019-05-29T15:16:44.184Z,24.04
2019-05-29T15:19:15.113Z,24.03
2019-05-29T15:21:44.868Z,23.99
2019-05-29T15:24:15.901Z,24.00
2019-05-29T15:26:45.680Z,24.04
2019-05-29T15:29:17.896Z,24.03
2019-05-29T15:31:47.059Z,24.02
2019-05-29T15:34:16.678Z,23.75
2019-05-29T15:36:46.282Z,22.93
2019-05-29T15:39:16.876Z,22.82
2019-05-29T15:41:46.807Z,23.15
2019-05-29T15:44:17.236Z,22.41
2019-05-29T15:46:47.149Z,22.39
2019-05-29T15:49:17.287Z,22.09
2019-05-29T15:51:47.234Z,22.44
2019-05-29T15:54:17.569Z,22.29
2019-05-29T15:56:47.444Z,22.47
2019-05-29T15:59:18.881Z,22.40
2019-05-29T16:01:48.360Z,22.84
2019-05-29T16:04:18.143Z,22.22
2019-05-29T16:06:47.944Z,22.08
2019-05-29T16:09:18.730Z,22.41
2019-05-29T16:11:48.998Z,21.96
2019-05-29T16:14:19.171Z,22.20
2019-05-29T16:16:49.998Z,22.29
2019-05-29T16:19:19.625Z,22.17
2019-05-29T16:21:49.224Z,22.12
2019-05-29T16:24:19.082Z,22.46
2019-05-29T16:26:48.821Z,22.73
2019-05-29T16:29:19.778Z,22.55
2019-05-29T16:31:49.597Z,22.76
2019-05-29T16:34:20.327Z,22.51
2019-05-29T16:36:50.495Z,22.50
2019-05-29T16:39:21.427Z,21.90
2019-05-29T16:41:51.400Z,21.89
2019-05-29T16:44:28.331Z,21.06
2019-05-29T16:46:52.347Z,21.10
2019-05-29T16:49:23.109Z,20.92
2019-05-29T16:51:52.969Z,20.70
2019-05-29T16:54:23.205Z,20.70
2019-05-29T16:56:53.118Z,21.01
2019-05-29T16:59:25.366Z,21.20
2019-05-29T17:01:54.046Z,20.77
2019-05-29T17:04:24.016Z,20.80
2019-05-29T17:06:53.934Z,20.67
2019-05-29T17:09:24.587Z,20.56
2019-05-29T17:11:54.387Z,20.64
2019-05-29T17:14:25.102Z,20.72
2019-05-29T17:16:55.039Z,20.76
2019-05-29T17:19:25.505Z,20.61
2019-05-29T17:21:55.234Z,20.37
2019-05-29T17:24:25.097Z,20.43
2019-05-29T17:26:54.838Z,20.17
2019-05-29T17:29:25.199Z,20.00
2019-05-29T17:31:54.936Z,20.50
2019-05-29T17:34:25.280Z,20.58
2019-05-29T17:36:55.124Z,20.59
2019-05-29T17:39:25.173Z,20.31
2019-05-29T17:41:55.392Z,20.03
2019-05-29T17:44:25.707Z,19.94
2019-05-29T17:46:55.678Z,20.23
2019-05-29T17:49:33.898Z,20.49
2019-05-29T17:51:56.661Z,20.98
2019-05-29T17:54:26.246Z,20.33
2019-05-29T17:56:55.928Z,20.34
2019-05-29T17:59:26.308Z,20.41
2019-05-29T18:01:56.185Z,21.17
2019-05-29T18:04:26.745Z,21.46
2019-05-29T18:06:56.835Z,20.87
2019-05-29T18:09:29.024Z,20.52
2019-05-29T18:11:57.905Z,20.53
2019-05-29T18:14:27.642Z,21.21
2019-05-29T18:16:57.555Z,21.61
2019-05-29T18:19:28.120Z,20.76
2019-05-29T18:21:58.714Z,20.91
2019-05-29T18:24:28.369Z,21.40
2019-05-29T18:26:59.256Z,20.89
2019-05-29T18:29:29.851Z,20.78
2019-05-29T18:31:59.811Z,21.41
2019-05-29T18:34:29.752Z,21.14
2019-05-29T18:36:59.602Z,21.20
2019-05-29T18:39:29.239Z,21.58
2019-05-29T18:41:58.826Z,21.89
2019-05-29T18:44:28.960Z,21.69
2019-05-29T18:46:58.667Z,21.96
2019-05-29T18:49:28.698Z,22.07
2019-05-29T18:52:00.369Z,21.98
2019-05-29T18:54:30.091Z,22.16
2019-05-29T18:57:14.430Z,22.31
2019-05-29T18:59:31.826Z,22.36
2019-05-29T19:02:01.536Z,22.38
2019-05-29T19:04:31.903Z,22.39
2019-05-29T19:07:02.033Z,22.35
2019-05-29T19:09:32.073Z,22.37
2019-05-29T19:12:01.949Z,22.41
2019-05-29T19:14:32.506Z,22.37
2019-05-29T19:17:02.550Z,22.39
2019-05-29T19:19:32.685Z,22.39
2019-05-29T19:22:02.389Z,22.38
2019-05-29T19:24:32.852Z,22.39
2019-05-29T19:27:02.624Z,22.39
2019-05-29T19:29:33.322Z,22.40
2019-05-29T19:32:03.337Z,22.38
2019-05-29T19:34:33.645Z,22.35
2019-05-29T19:37:03.494Z,22.36
2019-05-29T19:39:34.126Z,22.35
2019-05-29T19:42:03.972Z,22.32
2019-05-29T19:44:34.547Z,22.30
2019-05-29T19:47:04.444Z,22.26
2019-05-29T19:49:35.281Z,22.19
2019-05-29T19:52:05.504Z,22.22
2019-05-29T19:54:35.756Z,22.23
2019-05-29T19:57:05.568Z,22.20
2019-05-29T19:59:36.299Z,22.20
2019-05-29T20:02:06.052Z,22.22
2019-05-29T20:04:36.822Z,22.25
2019-05-29T20:07:06.557Z,22.29
2019-05-29T20:09:37.478Z,22.28
2019-05-29T20:12:07.330Z,22.27
2019-05-29T20:14:38.094Z,22.21
2019-05-29T20:17:07.816Z,22.26
2019-05-29T20:19:40.719Z,22.31
2019-05-29T20:22:08.762Z,22.24
2019-05-29T20:24:39.046Z,22.04
2019-05-29T20:27:08.970Z,22.06
2019-05-29T20:29:38.916Z,22.14
2019-05-29T20:32:08.506Z,22.30
2019-05-29T20:34:39.014Z,22.43
2019-05-29T20:37:08.898Z,22.52
2019-05-29T20:39:38.597Z,22.56
2019-05-29T20:42:08.242Z,22.59
2019-05-29T20:44:38.735Z,22.63
2019-05-29T20:47:08.525Z,22.66
2019-05-29T20:49:38.209Z,22.70
2019-05-29T20:52:07.797Z,22.71
2019-05-29T20:54:37.736Z,22.74
2019-05-29T20:57:13.543Z,22.76
2019-05-29T20:59:43.138Z,22.77
2019-05-29T21:02:12.830Z,22.79
2019-05-29T21:04:42.892Z,22.80
2019-05-29T21:07:12.818Z,22.81
2019-05-29T21:09:43.351Z,22.83
2019-05-29T21:12:13.266Z,22.82
2019-05-29T21:14:44.647Z,22.84
2019-05-29T21:17:14.215Z,22.85
2019-05-29T21:19:44.686Z,22.87
2019-05-29T21:22:14.486Z,22.87
2019-05-29T21:24:55.343Z,22.88
2019-05-29T21:27:15.480Z,22.90
2019-05-29T21:29:46.554Z,22.88
2019-05-29T21:32:16.151Z,22.87
2019-05-29T21:34:46.246Z,22.91
2019-05-29T21:37:16.137Z,22.93
2019-05-29T21:39:46.645Z,22.93
2019-05-29T21:42:16.539Z,22.93
2019-05-29T21:44:47.090Z,22.94
2019-05-29T21:47:17.054Z,22.93
2019-05-29T21:49:47.445Z,22.95
2019-05-29T21:52:17.517Z,22.96
2019-05-29T21:54:47.655Z,22.97
2019-05-29T21:57:17.297Z,22.97
2019-05-29T21:59:48.005Z,22.98
2019-05-29T22:02:18.229Z,22.98
2019-05-29T22:04:48.734Z,22.98
2019-05-29T22:07:18.473Z,22.99
2019-05-29T22:09:48.146Z,23.00
2019-05-29T22:12:17.968Z,23.02
2019-05-29T22:14:47.589Z,23.01
2019-05-29T22:17:17.184Z,23.02
2019-05-29T22:19:46.776Z,23.01
2019-05-29T22:22:16.449Z,23.00
2019-05-29T22:24:46.125Z,22.97
2019-05-29T22:27:15.683Z,23.02
2019-05-29T22:29:45.280Z,23.03
2019-05-29T22:32:14.975Z,23.03
2019-05-29T22:34:44.568Z,23.02
2019-05-29T22:37:14.227Z,23.03
2019-05-29T22:39:43.819Z,23.02
2019-05-29T22:42:13.419Z,23.03
2019-05-29T22:44:43.006Z,23.04
2019-05-29T22:47:12.601Z,23.04
2019-05-29T22:49:42.380Z,23.03
2019-05-29T22:52:12.381Z,23.04
2019-05-29T22:54:41.971Z,23.03
2019-05-29T22:57:11.579Z,23.03
2019-05-29T22:59:41.169Z,23.03
2019-05-29T23:02:10.768Z,23.06
2019-05-29T23:04:40.377Z,23.07
2019-05-29T23:07:09.971Z,23.07
2019-05-29T23:09:39.589Z,23.07
2019-05-29T23:12:09.195Z,23.06
2019-05-29T23:14:38.796Z,23.06
2019-05-29T23:17:08.379Z,23.06
2019-05-29T23:19:38.039Z,23.03
2019-05-29T23:22:07.627Z,23.01
2019-05-29T23:24:37.315Z,22.99
2019-05-29T23:27:07.511Z,22.98
2019-05-29T23:29:48.547Z,22.97
2019-05-29T23:32:08.496Z,22.99
2019-05-29T23:34:38.379Z,22.99
2019-05-29T23:37:07.971Z,23.00
2019-05-29T23:39:37.571Z,22.98
2019-05-29T23:42:07.172Z,22.99
2019-05-29T23:44:36.770Z,23.00
2019-05-29T23:47:06.368Z,23.01
2019-05-29T23:49:35.967Z,23.03
2019-05-29T23:52:05.625Z,23.03
2019-05-29T23:54:35.413Z,23.02
2019-05-29T23:57:05.024Z,23.00
2019-05-29T23:59:34.632Z,22.96
